Time;durP1;ratioP1;P1;durP2;ratioP2;P2;SDS_P1;SDS_P2;PMS_P1;PMS_P2;Temp;Humidity;BMP_temperature;BMP_pressure;BME280_temperature;BME280_humidity;BME280_pressure;Samples;Min_cycle;Max_cycle;Signal;HPM_P1;HPM_P2
2022/11/03 00:01:47;;;;;;;11.10;5.30;;;21.90;69.70;;;;;;213549;1285;25207;-58
2022/11/03 00:06:53;;;;;;;6.90;4.40;;;21.90;69.60;;;;;;213287;1291;22483;-58
2022/11/03 00:11:57;;;;;;;7.30;4.20;;;21.90;69.50;;;;;;213610;1288;22543;-58
2022/11/03 00:17:01;;;;;;;7.10;4.00;;;21.90;69.60;;;;;;213457;1296;24234;-58
2022/11/03 00:22:04;;;;;;;8.40;4.30;;;21.90;69.50;;;;;;213524;1310;26159;-59
2022/11/03 00:27:08;;;;;;;7.90;4.30;;;21.90;69.50;;;;;;213569;1283;22467;-60
2022/11/03 00:32:12;;;;;;;8.40;4.20;;;21.80;69.40;;;;;;213461;1284;26282;-59
2022/11/03 00:37:15;;;;;;;8.40;4.40;;;21.80;69.30;;;;;;213376;1284;24317;-58
2022/11/03 00:42:19;;;;;;;7.00;4.00;;;21.80;69.40;;;;;;213621;1288;22558;-58
2022/11/03 00:47:25;;;;;;;7.00;3.90;;;21.80;69.30;;;;;;213702;1286;26682;-59
2022/11/03 00:52:29;;;;;;;10.10;4.60;;;21.80;69.40;;;;;;213507;1287;25403;-59
2022/11/03 00:57:32;;;;;;;10.40;4.00;;;21.80;69.50;;;;;;213602;1283;22510;-58
2022/11/03 01:02:36;;;;;;;7.40;4.50;;;21.80;69.60;;;;;;213634;1280;24268;-59
2022/11/03 01:07:40;;;;;;;7.50;4.50;;;21.70;69.70;;;;;;213673;1296;24269;-59
2022/11/03 01:12:43;;;;;;;6.40;4.20;;;21.80;69.90;;;;;;213678;1284;25260;-59
2022/11/03 01:17:47;;;;;;;7.80;3.90;;;21.70;69.90;;;;;;213708;1286;26581;-58
2022/11/03 01:22:51;;;;;;;7.80;4.50;;;21.70;69.90;;;;;;213792;1287;25319;-57
2022/11/03 01:27:55;;;;;;;6.50;3.80;;;21.70;70.00;;;;;;213382;1286;22853;-56
2022/11/03 01:33:12;;;;;;;7.90;4.60;;;21.80;70.30;;;;;;213669;1284;22558;-57
2022/11/03 01:38:20;;;;;;;6.40;4.00;;;21.70;70.60;;;;;;213478;1286;22477;-60
2022/11/03 01:43:25;;;;;;;6.20;3.60;;;21.70;70.80;;;;;;213547;1305;23894;-58
2022/11/03 01:48:29;;;;;;;7.00;4.00;;;21.70;70.60;;;;;;213694;1287;22508;-58
2022/11/03 01:53:34;;;;;;;7.60;4.40;;;21.70;70.60;;;;;;213647;1288;22551;-58
2022/11/03 01:58:41;;;;;;;6.90;4.10;;;21.70;70.60;;;;;;213608;1287;22852;-59
2022/11/03 02:03:50;;;;;;;7.30;4.20;;;21.70;70.60;;;;;;218184;1281;67550;-61
2022/11/03 02:09:06;;;;;;;6.90;3.90;;;21.70;70.70;;;;;;213778;1291;22623;-59
2022/11/03 02:14:12;;;;;;;7.00;4.10;;;21.70;71.20;;;;;;213765;1291;23887;-61
2022/11/03 02:19:58;;;;;;;7.00;3.90;;;21.70;70.90;;;;;;213584;1285;25303;-61
2022/11/03 02:25:27;;;;;;;5.20;3.90;;;21.70;70.90;;;;;;213819;1285;23846;-62
2022/11/03 02:30:39;;;;;;;6.80;4.00;;;21.70;71.00;;;;;;213877;1306;26481;-61
2022/11/03 02:36:15;;;;;;;7.90;3.70;;;21.60;70.90;;;;;;213856;1290;24260;-63
2022/11/03 02:41:26;;;;;;;5.10;3.50;;;21.70;70.90;;;;;;213886;1285;22455;-62
2022/11/03 02:46:33;;;;;;;5.40;3.30;;;21.60;71.20;;;;;;213796;1306;23602;-61
2022/11/03 02:51:43;;;;;;;5.40;3.70;;;21.60;70.60;;;;;;213852;1292;23890;-62
2022/11/03 02:57:26;;;;;;;5.90;3.80;;;21.60;70.60;;;;;;213882;1277;22475;-61
2022/11/03 03:02:43;;;;;;;5.60;4.00;;;21.60;70.30;;;;;;213834;1301;23889;-61
2022/11/03 03:07:52;;;;;;;8.90;4.00;;;21.50;70.60;;;;;;213785;1285;22964;-61
2022/11/03 03:12:58;;;;;;;5.50;3.70;;;21.60;71.10;;;;;;213800;1277;22476;-59
2022/11/03 03:18:22;;;;;;;6.40;4.00;;;21.50;70.70;;;;;;213933;1277;22475;-61
2022/11/03 03:23:30;;;;;;;6.00;3.50;;;21.40;70.70;;;;;;213847;1285;25338;-59
2022/11/03 03:28:42;;;;;;;8.20;3.20;;;21.40;70.70;;;;;;213842;1278;22573;-61
2022/11/03 03:33:49;;;;;;;5.50;3.30;;;21.40;70.90;;;;;;213589;1284;24269;-60
2022/11/03 03:39:03;;;;;;;5.40;3.20;;;21.40;70.50;;;;;;219888;1284;22474;-61
2022/11/03 03:44:09;;;;;;;4.60;3.10;;;21.30;70.90;;;;;;213677;1285;24411;-61
2022/11/03 03:49:18;;;;;;;5.60;3.70;;;21.30;70.40;;;;;;213753;1285;23930;-59
2022/11/03 03:54:22;;;;;;;6.30;3.10;;;21.30;70.30;;;;;;213833;1285;24804;-59
2022/11/03 03:59:26;;;;;;;5.70;3.10;;;21.30;70.30;;;;;;213626;1288;23916;-61
2022/11/03 04:04:33;;;;;;;4.80;3.00;;;21.30;70.20;;;;;;213788;1285;24361;-60
2022/11/03 04:09:37;;;;;;;5.50;3.40;;;21.30;70.40;;;;;;213746;1277;25372;-60
2022/11/03 04:25:37;;;;;;;5.50;3.50;;;21.20;70.30;;;;;;213771;1288;22484;-59
2022/11/03 04:30:42;;;;;;;6.90;3.40;;;21.20;70.30;;;;;;213767;1285;25105;-61
2022/11/03 04:35:47;;;;;;;5.20;3.60;;;21.20;70.30;;;;;;213872;1277;22670;-60
2022/11/03 04:40:57;;;;;;;6.10;3.80;;;21.20;70.60;;;;;;213815;1294;25339;-61
2022/11/03 04:46:01;;;;;;;6.70;3.00;;;21.10;70.20;;;;;;213816;1278;23844;-58
2022/11/03 04:51:14;;;;;;;5.20;3.30;;;21.10;70.20;;;;;;213853;1285;22857;-59
2022/11/03 04:56:24;;;;;;;7.70;4.00;;;21.10;70.00;;;;;;213824;1285;22598;-60
2022/11/03 05:01:28;;;;;;;6.40;3.50;;;21.10;69.90;;;;;;213824;1290;22585;-60
2022/11/03 05:06:32;;;;;;;6.20;3.50;;;21.10;69.90;;;;;;213886;1288;23842;-60
2022/11/03 05:11:41;;;;;;;6.20;3.90;;;21.10;70.00;;;;;;213798;1300;22510;-62
2022/11/03 05:16:46;;;;;;;6.60;3.60;;;21.00;69.80;;;;;;213761;1288;25338;-61
2022/11/03 05:21:51;;;;;;;5.00;3.20;;;21.00;69.90;;;;;;213846;1280;22709;-62
2022/11/03 05:26:57;;;;;;;4.80;3.30;;;21.00;69.80;;;;;;213858;1285;25320;-61
2022/11/03 05:32:00;;;;;;;8.20;3.50;;;21.00;69.70;;;;;;213807;1285;22467;-61
2022/11/03 05:37:07;;;;;;;5.70;3.10;;;21.00;70.10;;;;;;213822;1285;25278;-62
2022/11/03 05:42:32;;;;;;;5.60;3.60;;;20.90;69.80;;;;;;213796;1278;22462;-60
2022/11/03 05:47:38;;;;;;;5.30;3.30;;;21.00;69.60;;;;;;213623;1290;22482;-60
2022/11/03 05:52:44;;;;;;;5.80;3.60;;;21.00;69.60;;;;;;215021;1294;25115;-60
2022/11/03 05:57:47;;;;;;;4.30;2.90;;;20.90;69.60;;;;;;213797;1309;26492;-62
2022/11/03 06:02:51;;;;;;;6.10;3.70;;;20.90;69.60;;;;;;213753;1294;25361;-61
2022/11/03 06:07:59;;;;;;;5.60;3.20;;;20.90;69.60;;;;;;213587;1285;218934;-61
2022/11/03 06:13:26;;;;;;;4.90;3.40;;;20.90;69.50;;;;;;213827;1284;25221;-60
2022/11/03 06:18:34;;;;;;;4.90;3.40;;;20.90;69.60;;;;;;213800;1288;24269;-61
2022/11/03 06:23:39;;;;;;;5.30;3.20;;;20.90;69.60;;;;;;213799;1295;23907;-60
2022/11/03 06:28:46;;;;;;;5.00;3.40;;;20.80;69.50;;;;;;213778;1291;24522;-61
2022/11/03 06:33:51;;;;;;;5.10;3.60;;;20.80;69.60;;;;;;213789;1285;23875;-59
2022/11/03 06:39:20;;;;;;;4.90;3.10;;;20.80;69.60;;;;;;213781;1286;22499;-61
2022/11/03 06:44:29;;;;;;;6.10;3.10;;;20.80;70.10;;;;;;213864;1288;24181;-61
2022/11/03 06:49:38;;;;;;;5.10;2.80;;;20.80;69.80;;;;;;213478;1291;25271;-59
2022/11/03 06:54:41;;;;;;;5.40;3.20;;;20.80;69.70;;;;;;213885;1285;22465;-59
2022/11/03 06:59:45;;;;;;;4.80;3.40;;;20.80;69.80;;;;;;213837;1285;23888;-60
2022/11/03 07:04:49;;;;;;;5.60;3.10;;;20.80;69.80;;;;;;213819;1285;25725;-61
2022/11/03 07:09:53;;;;;;;6.00;3.10;;;20.70;69.80;;;;;;213749;1288;25342;-61
2022/11/03 07:14:57;;;;;;;5.50;3.20;;;20.80;69.90;;;;;;213895;1285;25320;-62
2022/11/03 07:20:01;;;;;;;6.70;3.50;;;20.70;69.90;;;;;;213958;1283;25565;-62
2022/11/03 07:25:12;;;;;;;10.40;3.40;;;20.70;70.10;;;;;;213791;1283;22482;-59
2022/11/03 07:30:18;;;;;;;8.10;2.80;;;20.80;70.20;;;;;;213842;1285;22535;-59
2022/11/03 07:35:33;;;;;;;5.40;3.20;;;20.90;70.50;;;;;;213855;1284;24802;-60
2022/11/03 07:40:58;;;;;;;5.60;3.40;;;20.90;71.10;;;;;;213759;1285;25052;-59
2022/11/03 07:46:03;;;;;;;6.00;3.40;;;21.00;70.20;;;;;;213841;1277;22595;-59
2022/11/03 07:51:32;;;;;;;9.90;3.20;;;21.00;69.80;;;;;;213793;1285;24264;-59
2022/11/03 07:56:44;;;;;;;8.50;3.90;;;21.10;70.10;;;;;;213873;1284;26598;-60
2022/11/03 08:01:50;;;;;;;8.80;3.30;;;21.00;70.40;;;;;;213820;1294;22574;-61
2022/11/03 08:06:54;;;;;;;9.70;4.30;;;21.10;70.10;;;;;;213834;1285;25369;-61
2022/11/03 08:12:01;;;;;;;12.30;3.70;;;21.20;70.40;;;;;;213845;1285;22473;-60
2022/11/03 08:17:06;;;;;;;5.90;4.00;;;21.10;70.00;;;;;;213913;1285;22476;-61
2022/11/03 08:22:11;;;;;;;6.90;3.20;;;21.20;70.10;;;;;;213819;1283;22489;-60
2022/11/03 08:27:19;;;;;;;15.20;4.00;;;21.30;70.20;;;;;;213675;1285;22935;-60
2022/11/03 08:32:23;;;;;;;10.00;3.10;;;21.30;70.30;;;;;;213836;1284;25317;-62
2022/11/03 08:37:27;;;;;;;9.30;3.80;;;21.40;69.30;;;;;;213781;1285;22471;-58
2022/11/03 08:42:31;;;;;;;9.80;3.50;;;21.30;70.10;;;;;;213539;1284;22482;-60
2022/11/03 08:47:37;;;;;;;13.30;3.80;;;21.30;69.90;;;;;;213684;1284;25052;-57
2022/11/03 08:52:44;;;;;;;9.40;3.90;;;21.40;69.30;;;;;;213781;1285;22749;-59
2022/11/03 08:57:47;;;;;;;6.40;3.30;;;21.40;69.50;;;;;;213631;1285;23881;-58
2022/11/03 09:02:51;;;;;;;7.80;3.40;;;21.40;69.40;;;;;;213661;1284;26485;-58
2022/11/03 09:08:08;;;;;;;6.80;3.60;;;21.50;69.40;;;;;;214280;1283;24383;-66
2022/11/03 09:13:43;;;;;;;11.10;3.60;;;21.60;69.70;;;;;;212838;1286;26502;-60
2022/11/03 09:18:49;;;;;;;10.30;3.80;;;21.60;69.40;;;;;;212648;1286;24228;-58
2022/11/03 09:23:52;;;;;;;12.30;3.50;;;21.70;69.20;;;;;;213327;1286;25495;-60
2022/11/03 09:28:57;;;;;;;6.00;3.40;;;21.70;68.80;;;;;;213409;1287;22472;-58
2022/11/03 09:34:03;;;;;;;10.80;4.40;;;21.70;68.50;;;;;;213498;1284;22568;-60
2022/11/03 09:39:08;;;;;;;12.50;4.40;;;21.80;68.60;;;;;;213941;1285;25323;-59
2022/11/03 09:44:20;;;;;;;11.50;3.40;;;21.80;68.60;;;;;;213668;1283;23911;-60
2022/11/03 09:49:27;;;;;;;7.60;3.80;;;21.80;68.40;;;;;;213723;1284;22478;-63
2022/11/03 09:54:30;;;;;;;10.50;4.00;;;21.90;68.40;;;;;;213692;1287;23202;-60
2022/11/03 09:59:36;;;;;;;6.30;3.10;;;21.90;68.20;;;;;;213718;1285;26393;-60
2022/11/03 10:04:41;;;;;;;8.10;3.70;;;21.90;68.40;;;;;;213690;1283;25275;-58
2022/11/03 10:09:51;;;;;;;10.80;4.40;;;22.00;69.10;;;;;;213757;1284;22467;-63
2022/11/03 10:14:58;;;;;;;11.70;4.30;;;22.00;70.20;;;;;;213743;1284;26619;-57
2022/11/03 10:20:05;;;;;;;16.90;4.70;;;22.10;69.80;;;;;;213806;1291;25394;-60
2022/11/03 10:25:36;;;;;;;7.20;3.40;;;22.20;69.10;;;;;;213829;1284;23112;-57
2022/11/03 10:31:07;;;;;;;12.10;3.50;;;22.20;68.80;;;;;;213832;1284;25557;-59
2022/11/03 10:36:22;;;;;;;9.40;4.00;;;22.20;68.50;;;;;;213825;1283;25330;-60
2022/11/03 10:41:30;;;;;;;7.60;3.60;;;22.30;68.00;;;;;;213788;1286;23888;-65
2022/11/03 10:47:05;;;;;;;8.70;3.90;;;22.30;67.80;;;;;;219018;1291;23080;-58
2022/11/03 10:52:20;;;;;;;8.80;3.50;;;22.30;67.60;;;;;;213775;1291;22449;-59
2022/11/03 10:57:25;;;;;;;8.00;3.80;;;22.40;67.70;;;;;;213507;1285;25650;-59
2022/11/03 11:02:35;;;;;;;7.60;3.20;;;22.60;67.00;;;;;;213609;1291;24260;-62
2022/11/03 11:07:40;;;;;;;9.60;3.70;;;22.60;66.60;;;;;;213725;1288;22606;-59
2022/11/03 11:13:03;;;;;;;10.80;3.40;;;22.60;66.90;;;;;;213607;1287;22471;-62
2022/11/03 11:18:07;;;;;;;6.20;3.10;;;22.70;65.90;;;;;;214138;1284;23070;-63
2022/11/03 11:23:26;;;;;;;7.00;3.70;;;22.70;65.50;;;;;;213738;1283;24270;-60
2022/11/03 11:28:30;;;;;;;5.10;2.70;;;22.70;65.40;;;;;;213553;1291;25390;-62
2022/11/03 11:33:34;;;;;;;12.70;2.90;;;22.80;65.50;;;;;;213682;1285;25384;-62
2022/11/03 11:39:24;;;;;;;7.30;3.10;;;22.80;65.40;;;;;;214877;1285;26766;-60
2022/11/03 11:44:46;;;;;;;9.70;3.40;;;22.80;65.40;;;;;;213642;1285;25383;-61
2022/11/03 11:50:05;;;;;;;19.10;4.10;;;22.80;65.60;;;;;;213728;1285;22531;-62
2022/11/03 11:55:18;;;;;;;8.10;3.30;;;22.80;66.00;;;;;;213810;1285;25625;-64
2022/11/03 12:00:25;;;;;;;7.80;3.20;;;22.90;66.90;;;;;;213801;1293;22525;-61
2022/11/03 12:05:34;;;;;;;9.60;3.30;;;22.90;66.70;;;;;;213674;1278;22453;-62
2022/11/03 12:10:52;;;;;;;8.00;3.10;;;22.90;66.70;;;;;;213824;1308;24155;-59
2022/11/03 12:15:56;;;;;;;6.50;2.80;;;22.90;66.90;;;;;;213654;1285;22462;-60
2022/11/03 12:21:04;;;;;;;11.30;3.20;;;22.90;67.80;;;;;;213734;1284;22500;-53
2022/11/03 12:26:23;;;;;;;7.40;3.30;;;22.80;65.70;;;;;;213681;1292;22862;-52
2022/11/03 12:31:33;;;;;;;7.60;3.00;;;22.80;65.50;;;;;;213752;1285;22475;-56
2022/11/03 12:36:39;;;;;;;8.40;3.30;;;22.90;65.40;;;;;;213741;1285;25554;-54
2022/11/03 12:41:43;;;;;;;9.80;2.80;;;22.90;64.70;;;;;;213869;1285;23860;-55
2022/11/03 12:46:49;;;;;;;7.00;2.90;;;22.90;64.70;;;;;;213656;1288;22531;-56
2022/11/03 12:51:54;;;;;;;6.60;2.80;;;22.90;64.40;;;;;;213746;1284;24823;-56
2022/11/03 12:56:59;;;;;;;7.50;2.80;;;22.90;64.40;;;;;;213739;1283;25462;-54
2022/11/03 13:02:05;;;;;;;7.80;2.40;;;22.90;64.40;;;;;;213696;1283;22670;-53
2022/11/03 13:07:11;;;;;;;6.70;2.90;;;22.90;64.00;;;;;;213754;1277;22475;-56
2022/11/03 13:12:32;;;;;;;6.00;2.40;;;22.80;64.40;;;;;;213751;1285;24282;-55
2022/11/03 13:17:37;;;;;;;4.60;2.50;;;22.90;63.70;;;;;;213896;1284;24408;-55
2022/11/03 13:22:59;;;;;;;5.10;2.30;;;22.90;63.40;;;;;;213541;1279;24046;-54
2022/11/03 13:28:05;;;;;;;9.10;3.10;;;22.80;63.50;;;;;;213672;1284;26713;-55
2022/11/03 13:33:13;;;;;;;7.70;2.70;;;22.80;63.10;;;;;;213887;1279;22555;-54
2022/11/03 13:38:26;;;;;;;8.20;2.70;;;22.70;63.00;;;;;;213617;1278;22614;-54
2022/11/03 13:44:05;;;;;;;5.70;3.00;;;22.70;62.40;;;;;;213537;1284;22597;-57
2022/11/03 13:49:29;;;;;;;7.60;2.50;;;22.70;63.30;;;;;;213488;1280;22730;-55
2022/11/03 13:55:30;;;;;;;5.30;2.60;;;22.70;63.00;;;;;;213597;1294;25510;-56
2022/11/03 14:01:12;;;;;;;;;;;;;;;;;;;;;
2022/11/03 14:06:52;;;;;;;6.60;2.30;;;22.70;63.50;;;;;;213575;1277;22478;-54
2022/11/03 14:12:35;;;;;;;4.90;2.40;;;22.60;63.50;;;;;;213557;1277;24247;-54
2022/11/03 14:17:46;;;;;;;10.60;3.20;;;22.60;63.70;;;;;;213458;1284;22589;-52
2022/11/03 14:22:51;;;;;;;6.50;3.10;;;22.60;63.90;;;;;;213569;1285;24437;-52
2022/11/03 14:28:25;;;;;;;7.70;2.90;;;22.50;63.70;;;;;;213567;1283;24308;-52
2022/11/03 14:33:52;;;;;;;8.20;2.80;;;22.50;64.20;;;;;;213801;1284;22605;-53
2022/11/03 14:39:49;;;;;;;7.20;2.80;;;22.50;65.10;;;;;;213643;1284;23789;-53
2022/11/03 14:45:36;;;;;;;13.50;9.30;;;22.50;65.80;;;;;;213726;1277;25381;-53
2022/11/03 14:51:07;;;;;;;9.60;5.80;;;22.50;66.30;;;;;;213629;1294;25408;-54
2022/11/03 14:57:01;;;;;;;8.40;5.40;;;22.50;66.40;;;;;;213667;1284;22860;-54
2022/11/03 15:02:14;;;;;;;13.80;5.60;;;22.50;66.30;;;;;;213003;1293;22740;-54
2022/11/03 15:07:24;;;;;;;11.90;5.10;;;22.40;66.00;;;;;;212775;1283;22550;-54
2022/11/03 15:13:08;;;;;;;10.10;4.90;;;22.40;66.30;;;;;;212620;1293;23966;-54
2022/11/03 15:19:04;;;;;;;11.90;5.60;;;22.40;65.80;;;;;;211495;1296;24693;-54
2022/11/03 15:24:24;;;;;;;9.50;4.00;;;22.30;65.50;;;;;;211533;1296;24341;-54
2022/11/03 15:30:18;;;;;;;11.50;4.50;;;22.30;65.50;;;;;;212176;1289;22470;-51
2022/11/03 15:35:34;;;;;;;6.80;4.30;;;22.20;64.80;;;;;;212749;1291;23544;-56
2022/11/03 15:41:14;;;;;;;12.20;4.10;;;22.20;64.90;;;;;;212626;1299;24432;-56
2022/11/03 15:46:52;;;;;;;13.10;3.90;;;22.20;64.90;;;;;;212803;1297;25270;-54
2022/11/03 15:51:58;;;;;;;10.90;4.00;;;22.20;64.90;;;;;;212918;1291;22728;-54
2022/11/03 15:57:04;;;;;;;8.30;4.00;;;22.20;65.80;;;;;;213833;1279;22704;-56
2022/11/03 16:02:43;;;;;;;7.80;3.60;;;22.10;65.30;;;;;;213750;1293;24195;-52
2022/11/03 16:08:11;;;;;;;7.90;3.40;;;22.10;66.10;;;;;;213716;1285;24281;-56
2022/11/03 16:13:18;;;;;;;10.40;3.90;;;22.10;65.90;;;;;;213737;1301;23910;-53
2022/11/03 16:18:27;;;;;;;7.50;4.00;;;22.00;65.80;;;;;;213747;1277;24234;-54
2022/11/03 16:23:31;;;;;;;11.10;3.70;;;22.00;65.50;;;;;;213758;1277;22586;-55
2022/11/03 16:28:38;;;;;;;10.80;3.80;;;22.00;65.80;;;;;;213795;1299;25387;-53
2022/11/03 16:33:44;;;;;;;9.30;3.70;;;22.00;65.40;;;;;;213840;1278;24261;-54
2022/11/03 16:38:52;;;;;;;7.70;3.60;;;22.00;64.90;;;;;;213706;1304;22853;-56
2022/11/03 16:43:59;;;;;;;11.00;4.00;;;21.90;64.90;;;;;;213798;1285;22487;-54
2022/11/03 16:49:27;;;;;;;6.30;4.00;;;21.90;65.20;;;;;;213725;1287;22487;-54
2022/11/03 16:54:57;;;;;;;12.00;4.30;;;21.90;64.80;;;;;;213835;1278;23874;-55
2022/11/03 17:00:31;;;;;;;10.20;3.80;;;21.90;64.00;;;;;;213782;1285;23866;-52
2022/11/03 17:06:01;;;;;;;14.80;4.20;;;21.90;63.70;;;;;;213858;1288;25449;-54
2022/11/03 17:11:05;;;;;;;10.30;4.20;;;21.90;63.80;;;;;;213810;1285;22476;-54
2022/11/03 17:16:19;;;;;;;12.40;4.00;;;21.80;64.50;;;;;;213641;1288;22714;-54
2022/11/03 17:21:31;;;;;;;9.50;3.80;;;21.80;64.30;;;;;;213708;1285;22468;-55
2022/11/03 17:27:03;;;;;;;10.20;3.60;;;21.80;64.20;;;;;;213770;1281;23722;-54
2022/11/03 17:32:14;;;;;;;9.00;3.70;;;21.70;64.50;;;;;;213830;1285;22604;-55
2022/11/03 17:37:42;;;;;;;11.20;4.00;;;21.80;64.20;;;;;;213721;1277;25287;-55
2022/11/03 17:42:47;;;;;;;7.80;3.70;;;21.70;64.10;;;;;;213748;1285;24267;-52
2022/11/03 17:47:53;;;;;;;9.60;3.90;;;21.70;64.00;;;;;;213681;1285;22476;-54
2022/11/03 17:53:18;;;;;;;9.70;4.70;;;21.70;64.70;;;;;;213667;1285;24251;-55
2022/11/03 17:58:31;;;;;;;9.70;3.70;;;21.70;64.50;;;;;;209078;1331;542671;-55
2022/11/03 18:03:36;;;;;;;7.10;4.00;;;21.70;65.00;;;;;;213415;1292;22492;-54
2022/11/03 18:08:43;;;;;;;9.10;4.00;;;21.60;65.10;;;;;;212963;1288;156628;-53
2022/11/03 18:13:49;;;;;;;12.40;4.50;;;21.60;65.20;;;;;;213684;1285;22725;-57
2022/11/03 18:18:56;;;;;;;12.20;4.70;;;21.70;65.80;;;;;;213615;1289;22545;-55
2022/11/03 18:24:18;;;;;;;13.90;5.60;;;21.60;65.40;;;;;;213586;1289;25460;-54
2022/11/03 18:29:24;;;;;;;10.00;5.10;;;21.70;65.40;;;;;;213654;1285;22553;-55
2022/11/03 18:34:30;;;;;;;8.20;4.00;;;21.60;66.00;;;;;;213889;1285;22477;-55
2022/11/03 18:39:35;;;;;;;7.70;3.90;;;21.60;65.90;;;;;;213765;1289;22460;-56
2022/11/03 18:44:48;;;;;;;9.00;4.20;;;21.60;65.60;;;;;;213515;1287;22489;-58
2022/11/03 18:49:54;;;;;;;12.00;3.60;;;21.60;65.40;;;;;;213702;1292;22490;-61
2022/11/03 18:54:58;;;;;;;10.30;4.10;;;21.60;65.60;;;;;;213740;1289;23855;-55
2022/11/03 19:00:05;;;;;;;8.60;4.20;;;21.50;65.70;;;;;;213718;1288;23891;-55
2022/11/03 19:05:24;;;;;;;8.00;4.10;;;21.60;65.90;;;;;;213576;1281;25392;-55
2022/11/03 19:10:29;;;;;;;11.40;4.60;;;21.50;65.90;;;;;;213893;1287;22486;-58
2022/11/03 19:15:33;;;;;;;7.50;4.00;;;21.50;66.10;;;;;;213638;1294;22694;-54
2022/11/03 19:20:41;;;;;;;11.10;4.30;;;21.50;65.80;;;;;;213372;1289;25293;-52
2022/11/03 19:25:58;;;;;;;12.20;4.50;;;21.50;66.10;;;;;;213685;1285;25305;-54
2022/11/03 19:31:23;;;;;;;11.40;5.10;;;21.50;66.60;;;;;;213680;1289;23852;-54
2022/11/03 19:36:34;;;;;;;18.50;6.20;;;21.70;66.90;;;;;;213731;1285;25562;-53
2022/11/03 19:47:42;;;;;;;13.00;5.00;;;21.60;67.80;;;;;;213626;1290;22487;-50
2022/11/03 19:53:40;;;;;;;10.90;5.10;;;21.60;67.50;;;;;;213649;1289;24280;-49
2022/11/03 19:58:51;;;;;;;15.20;4.70;;;21.50;67.40;;;;;;213084;1298;24221;-48
2022/11/03 20:03:55;;;;;;;9.00;4.40;;;21.50;68.20;;;;;;213158;1292;22509;-46
2022/11/03 20:09:06;;;;;;;11.20;5.20;;;21.50;69.40;;;;;;213061;1298;22501;-50
2022/11/03 20:14:16;;;;;;;10.10;4.10;;;21.50;69.80;;;;;;213077;1299;24364;-48
2022/11/03 20:19:25;;;;;;;15.10;5.70;;;21.50;69.90;;;;;;213203;1289;24056;-51
2022/11/03 20:24:31;;;;;;;12.30;4.70;;;21.60;70.20;;;;;;213708;1288;25223;-52
2022/11/03 20:29:37;;;;;;;15.60;5.10;;;21.60;70.60;;;;;;213541;1285;22849;-51
2022/11/03 20:34:44;;;;;;;13.60;4.80;;;21.50;70.70;;;;;;213717;1278;22502;-51
2022/11/03 20:39:48;;;;;;;12.60;4.80;;;21.50;70.90;;;;;;213760;1285;22588;-49
2022/11/03 20:44:52;;;;;;;11.20;4.80;;;21.50;70.60;;;;;;213690;1284;25340;-52
2022/11/03 20:49:56;;;;;;;14.20;5.50;;;21.50;70.50;;;;;;213729;1284;24267;-50
2022/11/03 20:55:01;;;;;;;19.70;5.90;;;21.50;70.80;;;;;;213789;1286;25544;-50
2022/11/03 21:00:15;;;;;;;11.00;5.30;;;21.50;70.40;;;;;;214001;1281;22489;-52
2022/11/03 21:05:24;;;;;;;14.10;4.80;;;21.50;70.40;;;;;;213911;1279;22545;-51
2022/11/03 21:10:28;;;;;;;11.90;4.90;;;21.40;70.40;;;;;;213919;1301;25628;-51
2022/11/03 21:21:22;;;;;;;12.00;5.00;;;21.30;70.20;;;;;;214770;1280;25372;-50
2022/11/03 21:26:45;;;;;;;13.70;5.20;;;21.30;70.30;;;;;;214678;1288;22446;-51
2022/11/03 21:32:13;;;;;;;19.50;6.00;;;21.30;71.10;;;;;;214656;1272;22448;-52
2022/11/03 21:37:20;;;;;;;15.50;5.60;;;21.40;72.70;;;;;;214770;1282;24204;-52
2022/11/03 21:53:17;;;;;;;13.70;5.30;;;21.40;73.30;;;;;;214711;1272;23905;-52
2022/11/03 21:58:22;;;;;;;11.50;4.60;;;21.40;73.00;;;;;;214630;1272;24034;-52
2022/11/03 22:03:29;;;;;;;13.10;5.30;;;21.40;73.00;;;;;;214638;1278;24225;-53
2022/11/03 22:08:38;;;;;;;18.20;5.40;;;21.40;72.90;;;;;;214755;1272;25003;-53
2022/11/03 22:13:43;;;;;;;11.00;4.90;;;21.40;72.80;;;;;;214743;1282;22458;-53
2022/11/03 22:18:47;;;;;;;14.40;5.20;;;21.30;72.60;;;;;;214742;1279;22466;-50
2022/11/03 22:45:56;;;;;;;8.50;5.00;;;21.30;74.90;;;;;;214593;1279;24947;-52
2022/11/03 22:51:02;;;;;;;14.80;5.20;;;21.40;75.00;;;;;;214595;1279;22579;-52
2022/11/03 22:56:07;;;;;;;12.90;5.20;;;21.30;74.90;;;;;;214464;1272;24247;-52
2022/11/03 23:01:17;;;;;;;11.10;4.60;;;21.30;74.80;;;;;;214692;1279;23064;-51
2022/11/03 23:06:27;;;;;;;10.60;4.90;;;21.30;74.80;;;;;;214693;1279;22485;-50
2022/11/03 23:11:33;;;;;;;8.00;4.70;;;21.30;74.70;;;;;;214616;1281;22457;-48
2022/11/03 23:16:43;;;;;;;7.90;4.50;;;21.20;74.90;;;;;;214573;1279;22709;-51
2022/11/03 23:21:49;;;;;;;7.90;4.30;;;21.20;74.30;;;;;;214457;1289;22453;-51
2022/11/03 23:26:59;;;;;;;11.40;5.10;;;21.20;74.40;;;;;;214642;1280;25231;-50
2022/11/03 23:32:04;;;;;;;8.30;4.30;;;21.20;74.40;;;;;;214433;1288;22992;-50
2022/11/03 23:37:13;;;;;;;9.50;4.00;;;21.20;74.40;;;;;;214486;1289;22484;-52
2022/11/03 23:42:31;;;;;;;12.20;5.00;;;21.20;74.50;;;;;;214694;1289;25890;-49
2022/11/03 23:52:59;;;;;;;9.20;4.70;;;21.20;74.40;;;;;;214850;1279;24515;-51
2022/11/03 23:58:20;;;;;;;8.60;4.70;;;21.20;74.10;;;;;;216381;1272;22521;-52
